Time;durP1;ratioP1;P1;durP2;ratioP2;P2;SDS_P1;SDS_P2;PMS_P1;PMS_P2;Temp;Humidity;BMP_temperature;BMP_pressure;BME280_temperature;BME280_humidity;BME280_pressure;Samples;Min_cycle;Max_cycle;Signal;HPM_P1;HPM_P2
2023/05/05 00:01:06;;;;;;;6.70;4.77;;;;;;;;;;5053287;28;20261;-65
2023/05/05 00:03:34;;;;;;;7.33;5.27;;;;;;;;;;5052001;28;20210;-66
2023/05/05 00:06:00;;;;;;;7.00;5.10;;;;;;;;;;5052116;28;20182;-65
2023/05/05 00:08:26;;;;;;;8.60;5.13;;;;;;;;;;5054154;28;20648;-66
2023/05/05 00:10:52;;;;;;;9.57;5.53;;;;;;;;;;5053350;28;20194;-65
2023/05/05 00:13:19;;;;;;;8.63;5.73;;;;;;;;;;5052729;28;20240;-65
2023/05/05 00:15:46;;;;;;;8.87;5.33;;;;;;;;;;5053893;28;20182;-65
2023/05/05 00:18:15;;;;;;;7.87;5.33;;;;;;;;;;5053393;28;20256;-66
2023/05/05 00:20:40;;;;;;;11.27;5.93;;;;;;;;;;5053628;28;20171;-66
2023/05/05 00:23:06;;;;;;;11.07;6.10;;;;;;;;;;5053146;28;20201;-66
2023/05/05 00:25:32;;;;;;;7.50;6.03;;;;;;;;;;5053174;28;20265;-66
2023/05/05 00:27:58;;;;;;;10.53;5.90;;;;;;;;;;5053370;28;20183;-66
2023/05/05 00:30:25;;;;;;;8.70;5.40;;;;;;;;;;5053530;28;20671;-66
2023/05/05 00:32:51;;;;;;;5.23;4.53;;;;;;;;;;5053028;28;20210;-65
2023/05/05 00:35:17;;;;;;;7.37;5.30;;;;;;;;;;5051766;28;20214;-66
2023/05/05 00:37:43;;;;;;;8.53;4.87;;;;;;;;;;5053205;28;20171;-65
2023/05/05 00:40:10;;;;;;;12.50;4.93;;;;;;;;;;5053037;28;20253;-67
2023/05/05 00:42:46;;;;;;;9.50;5.10;;;;;;;;;;5051693;28;20607;-66
2023/05/05 00:45:13;;;;;;;7.33;5.00;;;;;;;;;;5053160;28;20186;-67
2023/05/05 00:47:40;;;;;;;6.17;4.90;;;;;;;;;;5053028;28;20206;-66
2023/05/05 00:50:08;;;;;;;5.13;4.63;;;;;;;;;;5052749;28;20261;-64
2023/05/05 00:52:35;;;;;;;9.70;5.10;;;;;;;;;;5051137;28;20221;-66
2023/05/05 00:55:01;;;;;;;5.67;5.17;;;;;;;;;;5053098;28;20230;-66
2023/05/05 00:57:27;;;;;;;6.70;5.27;;;;;;;;;;5051208;28;20179;-66
2023/05/05 00:59:54;;;;;;;5.73;5.10;;;;;;;;;;5052854;28;20179;-66
2023/05/05 01:02:21;;;;;;;8.53;5.53;;;;;;;;;;5052692;28;20286;-65
2023/05/05 01:04:47;;;;;;;5.80;5.27;;;;;;;;;;5052448;28;20185;-65
2023/05/05 01:07:19;;;;;;;8.53;5.47;;;;;;;;;;5052763;28;20258;-70
2023/05/05 01:09:45;;;;;;;7.43;5.67;;;;;;;;;;5054342;28;20220;-66
2023/05/05 01:12:30;;;;;;;6.00;5.40;;;;;;;;;;5055066;28;20198;-66
2023/05/05 01:15:06;;;;;;;10.13;5.70;;;;;;;;;;5038406;28;20571;-66
2023/05/05 01:17:35;;;;;;;7.30;6.10;;;;;;;;;;5055919;28;20170;-66
2023/05/05 01:20:01;;;;;;;7.83;5.90;;;;;;;;;;5055767;28;20181;-66
2023/05/05 01:22:31;;;;;;;10.07;5.43;;;;;;;;;;5054401;28;20624;-66
2023/05/05 01:25:12;;;;;;;15.57;6.17;;;;;;;;;;5055747;28;20185;-65
2023/05/05 01:27:58;;;;;;;7.30;5.97;;;;;;;;;;5055666;28;20249;-66
2023/05/05 01:30:24;;;;;;;6.83;6.03;;;;;;;;;;5055660;28;20182;-65
2023/05/05 01:32:54;;;;;;;9.67;6.67;;;;;;;;;;5055886;28;20190;-65
2023/05/05 01:35:23;;;;;;;8.50;6.03;;;;;;;;;;5055570;28;20190;-65
2023/05/05 01:37:58;;;;;;;8.60;6.07;;;;;;;;;;5055339;28;20224;-66
2023/05/05 01:40:29;;;;;;;14.10;5.93;;;;;;;;;;5055666;28;20178;-64
2023/05/05 01:42:55;;;;;;;8.13;6.07;;;;;;;;;;5054114;28;20191;-64
2023/05/05 01:45:23;;;;;;;10.53;6.80;;;;;;;;;;5055687;28;20174;-65
2023/05/05 01:47:49;;;;;;;9.13;6.43;;;;;;;;;;5055592;28;20257;-65
2023/05/05 01:50:15;;;;;;;8.60;6.30;;;;;;;;;;5055319;28;20261;-65
2023/05/05 01:52:41;;;;;;;7.83;6.07;;;;;;;;;;5055472;28;20218;-67
2023/05/05 01:55:08;;;;;;;7.20;6.50;;;;;;;;;;5055219;28;20213;-65
2023/05/05 01:57:35;;;;;;;12.17;6.20;;;;;;;;;;5055203;28;20257;-65
2023/05/05 02:00:04;;;;;;;9.80;6.37;;;;;;;;;;5053869;28;20178;-66
2023/05/05 02:02:31;;;;;;;9.80;6.30;;;;;;;;;;5055199;28;20190;-64
2023/05/05 02:04:58;;;;;;;9.13;6.63;;;;;;;;;;5055004;28;20648;-65
2023/05/05 02:07:24;;;;;;;9.43;7.10;;;;;;;;;;5053767;28;20182;-65
2023/05/05 02:09:50;;;;;;;10.40;6.73;;;;;;;;;;5054965;28;20566;-66
2023/05/05 02:12:17;;;;;;;7.93;6.50;;;;;;;;;;5054880;28;20198;-66
2023/05/05 02:14:43;;;;;;;9.27;7.60;;;;;;;;;;5053558;28;20210;-66
2023/05/05 02:17:10;;;;;;;8.20;7.33;;;;;;;;;;5054757;28;20181;-66
2023/05/05 02:19:39;;;;;;;8.23;7.37;;;;;;;;;;5053019;28;20182;-66
2023/05/05 02:22:05;;;;;;;8.37;7.17;;;;;;;;;;5055099;28;20197;-65
2023/05/05 02:24:31;;;;;;;10.33;7.97;;;;;;;;;;5054773;28;20209;-66
2023/05/05 02:26:57;;;;;;;9.83;7.50;;;;;;;;;;5054871;28;20348;-65
2023/05/05 02:29:32;;;;;;;10.67;8.57;;;;;;;;;;5053347;28;20269;-66
2023/05/05 02:32:02;;;;;;;8.17;7.37;;;;;;;;;;5053336;28;20217;-64
2023/05/05 02:34:30;;;;;;;9.43;8.20;;;;;;;;;;5053318;28;20210;-64
2023/05/05 02:36:57;;;;;;;8.87;7.93;;;;;;;;;;5054530;28;20182;-64
2023/05/05 02:39:30;;;;;;;8.73;7.80;;;;;;;;;;5053268;28;20178;-66
2023/05/05 02:41:57;;;;;;;9.40;7.73;;;;;;;;;;5054812;28;20562;-65
2023/05/05 02:44:24;;;;;;;10.83;8.73;;;;;;;;;;5053185;28;20210;-65
2023/05/05 02:46:50;;;;;;;10.77;8.10;;;;;;;;;;5054208;28;20261;-65
2023/05/05 02:49:16;;;;;;;10.97;8.10;;;;;;;;;;5054235;28;20544;-65
2023/05/05 02:51:42;;;;;;;10.73;9.20;;;;;;;;;;5054301;28;20217;-66
2023/05/05 02:54:08;;;;;;;8.93;8.03;;;;;;;;;;5052889;28;20194;-65
2023/05/05 02:56:46;;;;;;;9.13;8.03;;;;;;;;;;5052845;28;20189;-65
2023/05/05 02:59:30;;;;;;;12.57;8.30;;;;;;;;;;5052841;28;20170;-65
2023/05/05 03:02:17;;;;;;;12.37;8.27;;;;;;;;;;5054129;28;20202;-65
2023/05/05 03:05:03;;;;;;;12.60;8.73;;;;;;;;;;5054116;28;20261;-65
2023/05/05 03:07:31;;;;;;;11.63;8.67;;;;;;;;;;5053416;28;20671;-65
2023/05/05 03:10:17;;;;;;;9.67;8.27;;;;;;;;;;5052563;28;20213;-65
2023/05/05 03:12:53;;;;;;;12.20;8.23;;;;;;;;;;5035644;28;20289;-65
2023/05/05 03:15:21;;;;;;;9.43;8.63;;;;;;;;;;5052237;28;20626;-65
2023/05/05 03:17:48;;;;;;;9.47;8.57;;;;;;;;;;5052434;28;20178;-65
2023/05/05 03:20:14;;;;;;;9.73;8.50;;;;;;;;;;5052385;28;20179;-66
2023/05/05 03:22:40;;;;;;;11.30;9.47;;;;;;;;;;5053559;28;20197;-65
2023/05/05 03:25:06;;;;;;;11.80;9.33;;;;;;;;;;5053909;28;20174;-65
2023/05/05 03:27:32;;;;;;;10.87;9.63;;;;;;;;;;5052231;28;20182;-65
2023/05/05 03:29:58;;;;;;;14.33;9.40;;;;;;;;;;5054003;28;20205;-65
2023/05/05 03:32:25;;;;;;;14.00;10.03;;;;;;;;;;5051294;28;20542;-65
2023/05/05 03:34:51;;;;;;;14.33;9.67;;;;;;;;;;5053449;28;20643;-65
2023/05/05 03:37:17;;;;;;;13.37;11.27;;;;;;;;;;5053647;28;20202;-65
2023/05/05 03:39:43;;;;;;;16.73;10.70;;;;;;;;;;5053942;28;20175;-66
2023/05/05 03:42:09;;;;;;;13.33;10.40;;;;;;;;;;5053142;28;20198;-65
2023/05/05 03:44:35;;;;;;;14.17;11.10;;;;;;;;;;5053293;28;20174;-65
2023/05/05 03:47:01;;;;;;;12.27;10.97;;;;;;;;;;5053124;28;20182;-65
2023/05/05 03:49:27;;;;;;;12.33;10.63;;;;;;;;;;5053137;28;20184;-65
2023/05/05 03:51:53;;;;;;;13.10;11.80;;;;;;;;;;5051625;28;20218;-66
2023/05/05 03:54:19;;;;;;;14.37;12.13;;;;;;;;;;5051939;28;20775;-65
2023/05/05 03:56:45;;;;;;;13.50;12.10;;;;;;;;;;5053279;28;20174;-65
2023/05/05 03:59:11;;;;;;;12.70;11.23;;;;;;;;;;5053414;28;20237;-65
2023/05/05 04:01:37;;;;;;;15.17;12.57;;;;;;;;;;5051733;28;20199;-65
2023/05/05 04:04:03;;;;;;;14.87;13.27;;;;;;;;;;5053164;28;20177;-67
2023/05/05 04:06:30;;;;;;;18.43;12.93;;;;;;;;;;5053218;28;20178;-66
2023/05/05 04:08:56;;;;;;;20.87;13.63;;;;;;;;;;5051705;28;20193;-66
2023/05/05 04:11:22;;;;;;;15.47;13.57;;;;;;;;;;5052894;28;20182;-63
2023/05/05 04:13:48;;;;;;;20.63;13.53;;;;;;;;;;5051726;28;20209;-65
2023/05/05 04:16:15;;;;;;;16.23;13.87;;;;;;;;;;5051837;28;20182;-63
2023/05/05 04:18:41;;;;;;;15.20;13.60;;;;;;;;;;5051759;28;20265;-63
2023/05/05 04:21:07;;;;;;;17.73;14.53;;;;;;;;;;5052787;28;20213;-64
2023/05/05 04:23:33;;;;;;;17.87;14.57;;;;;;;;;;5051627;28;20183;-63
2023/05/05 04:25:59;;;;;;;18.37;14.57;;;;;;;;;;5051541;28;20182;-63
2023/05/05 04:28:24;;;;;;;15.90;14.27;;;;;;;;;;5053176;28;20171;-63
2023/05/05 04:30:51;;;;;;;17.83;14.40;;;;;;;;;;5051627;28;20269;-63
2023/05/05 04:33:17;;;;;;;17.33;14.83;;;;;;;;;;5051640;28;20198;-63
2023/05/05 04:35:42;;;;;;;15.97;14.27;;;;;;;;;;5052997;28;20601;-63
2023/05/05 04:38:08;;;;;;;21.70;14.97;;;;;;;;;;5052742;28;20266;-63
2023/05/05 04:40:38;;;;;;;16.30;14.70;;;;;;;;;;5051403;28;20206;-63
2023/05/05 04:43:05;;;;;;;19.37;15.20;;;;;;;;;;5053562;28;20251;-66
2023/05/05 04:45:31;;;;;;;17.23;15.60;;;;;;;;;;5056472;28;20171;-66
2023/05/05 04:47:57;;;;;;;17.97;16.13;;;;;;;;;;5056659;28;20235;-63
2023/05/05 04:50:23;;;;;;;18.70;16.20;;;;;;;;;;5056857;28;20304;-63
2023/05/05 04:52:49;;;;;;;20.97;16.97;;;;;;;;;;5084687;22;20222;-67
2023/05/05 04:55:15;;;;;;;17.50;15.67;;;;;;;;;;5062764;28;20201;-66
2023/05/05 04:57:41;;;;;;;18.20;16.40;;;;;;;;;;5078306;28;20288;-67
2023/05/05 05:00:08;;;;;;;19.13;17.10;;;;;;;;;;5061353;28;20257;-68
2023/05/05 05:02:34;;;;;;;19.83;17.73;;;;;;;;;;5081771;28;20173;-67
2023/05/05 05:05:00;;;;;;;20.27;18.13;;;;;;;;;;5058731;28;20600;-68
2023/05/05 05:07:26;;;;;;;22.83;18.53;;;;;;;;;;5076206;28;20193;-68
2023/05/05 05:09:52;;;;;;;21.43;19.13;;;;;;;;;;5076499;28;20174;-68
2023/05/05 05:12:19;;;;;;;21.37;19.17;;;;;;;;;;5058070;28;20284;-68
2023/05/05 05:14:45;;;;;;;23.63;18.80;;;;;;;;;;5076613;28;20258;-69
2023/05/05 05:17:11;;;;;;;20.97;18.77;;;;;;;;;;5075934;28;20178;-68
2023/05/05 05:19:38;;;;;;;22.80;19.57;;;;;;;;;;5075970;28;20212;-68
2023/05/05 05:22:04;;;;;;;21.27;19.07;;;;;;;;;;5057755;28;20178;-68
2023/05/05 05:24:29;;;;;;;22.07;19.80;;;;;;;;;;5075747;28;20198;-68
2023/05/05 05:26:55;;;;;;;22.70;19.43;;;;;;;;;;5075606;28;20300;-68
2023/05/05 05:29:21;;;;;;;22.77;18.50;;;;;;;;;;5075880;28;20210;-68
2023/05/05 05:31:48;;;;;;;20.73;18.50;;;;;;;;;;5075562;28;20185;-69
2023/05/05 05:34:14;;;;;;;21.30;19.00;;;;;;;;;;5075240;28;20208;-69
2023/05/05 05:36:40;;;;;;;21.30;19.07;;;;;;;;;;5057386;28;20178;-69
2023/05/05 05:39:06;;;;;;;21.00;18.90;;;;;;;;;;5075715;28;20173;-69
2023/05/05 05:41:32;;;;;;;19.40;17.50;;;;;;;;;;5057587;28;20174;-68
2023/05/05 05:43:58;;;;;;;20.60;18.50;;;;;;;;;;5057731;28;20209;-68
2023/05/05 05:46:24;;;;;;;20.97;18.80;;;;;;;;;;5075921;28;20582;-68
2023/05/05 05:48:50;;;;;;;19.50;17.60;;;;;;;;;;5057298;28;20565;-68
2023/05/05 05:51:16;;;;;;;21.30;18.93;;;;;;;;;;5057272;28;20205;-69
2023/05/05 05:53:42;;;;;;;19.60;17.60;;;;;;;;;;5075529;28;20244;-69
2023/05/05 05:56:08;;;;;;;22.07;16.93;;;;;;;;;;5074565;28;20178;-68
2023/05/05 05:58:34;;;;;;;18.93;16.87;;;;;;;;;;5075408;28;20181;-70
2023/05/05 06:01:01;;;;;;;19.00;17.07;;;;;;;;;;5075149;28;20177;-69
2023/05/05 06:03:27;;;;;;;20.07;18.07;;;;;;;;;;5074892;28;20201;-69
2023/05/05 06:05:52;;;;;;;24.13;18.07;;;;;;;;;;5056924;28;20185;-69
2023/05/05 06:08:18;;;;;;;20.57;18.43;;;;;;;;;;5074900;28;20173;-69
2023/05/05 06:10:46;;;;;;;19.10;17.20;;;;;;;;;;5074889;28;20178;-69
2023/05/05 06:13:12;;;;;;;21.67;18.07;;;;;;;;;;5075168;28;20197;-68
2023/05/05 06:15:38;;;;;;;18.90;16.93;;;;;;;;;;5056708;28;20206;-69
2023/05/05 06:18:04;;;;;;;20.47;17.70;;;;;;;;;;5074815;28;20212;-68
2023/05/05 06:20:30;;;;;;;20.13;17.90;;;;;;;;;;5074650;28;20239;-68
2023/05/05 06:22:56;;;;;;;19.13;17.23;;;;;;;;;;5074486;28;20675;-68
2023/05/05 06:25:22;;;;;;;19.47;17.10;;;;;;;;;;5056688;28;20674;-68
2023/05/05 06:27:48;;;;;;;20.33;18.10;;;;;;;;;;5074473;28;20178;-68
2023/05/05 06:30:14;;;;;;;20.00;17.90;;;;;;;;;;5074936;28;20216;-69
2023/05/05 06:32:40;;;;;;;23.70;18.07;;;;;;;;;;5074335;28;20576;-68
2023/05/05 06:35:06;;;;;;;18.10;16.23;;;;;;;;;;5056460;28;20208;-68
2023/05/05 06:37:32;;;;;;;19.13;17.00;;;;;;;;;;5074575;28;20235;-68
2023/05/05 06:39:58;;;;;;;21.50;17.57;;;;;;;;;;5074895;28;20174;-68
2023/05/05 06:42:24;;;;;;;18.63;16.60;;;;;;;;;;5074407;28;20181;-68
2023/05/05 06:44:50;;;;;;;16.60;14.87;;;;;;;;;;5056275;28;20182;-68
2023/05/05 06:47:16;;;;;;;20.53;14.53;;;;;;;;;;5074742;28;20594;-68
2023/05/05 06:49:42;;;;;;;14.37;12.57;;;;;;;;;;5074243;28;20182;-68
2023/05/05 06:52:08;;;;;;;13.47;11.57;;;;;;;;;;5056190;28;20182;-68
2023/05/05 06:54:34;;;;;;;12.90;11.53;;;;;;;;;;5073747;28;20734;-68
2023/05/05 06:57:00;;;;;;;13.80;12.33;;;;;;;;;;5073908;28;20243;-68
2023/05/05 06:59:26;;;;;;;13.73;11.80;;;;;;;;;;5055948;28;20181;-68
2023/05/05 07:01:52;;;;;;;13.63;12.10;;;;;;;;;;5055904;28;20615;-68
2023/05/05 07:04:18;;;;;;;15.03;11.57;;;;;;;;;;5055767;28;20604;-68
2023/05/05 07:06:44;;;;;;;11.63;10.43;;;;;;;;;;5073982;28;20567;-68
2023/05/05 07:09:11;;;;;;;10.63;9.57;;;;;;;;;;5074007;28;20170;-68
2023/05/05 07:11:37;;;;;;;14.20;9.97;;;;;;;;;;5055688;28;20426;-68
2023/05/05 07:14:03;;;;;;;11.33;10.23;;;;;;;;;;5073578;28;20314;-68
2023/05/05 07:16:29;;;;;;;12.33;9.93;;;;;;;;;;5073658;28;20500;-68
2023/05/05 07:18:55;;;;;;;11.10;9.93;;;;;;;;;;5055675;28;20180;-68
2023/05/05 07:21:21;;;;;;;11.53;10.27;;;;;;;;;;5055589;28;20188;-68
2023/05/05 07:23:47;;;;;;;11.80;10.57;;;;;;;;;;5055479;28;20288;-69
2023/05/05 07:26:14;;;;;;;11.73;10.33;;;;;;;;;;5073708;28;20640;-68
2023/05/05 07:28:41;;;;;;;13.10;10.70;;;;;;;;;;5073708;28;20181;-68
2023/05/05 07:31:07;;;;;;;14.00;10.63;;;;;;;;;;5073302;28;20174;-68
2023/05/05 07:33:33;;;;;;;16.03;11.17;;;;;;;;;;5073311;28;20210;-68
2023/05/05 07:35:59;;;;;;;14.20;10.80;;;;;;;;;;5073526;28;20184;-69
2023/05/05 07:38:27;;;;;;;16.07;11.63;;;;;;;;;;5073670;28;20253;-69
2023/05/05 07:40:53;;;;;;;11.53;10.43;;;;;;;;;;5056360;28;20594;-68
2023/05/05 07:43:19;;;;;;;11.47;10.37;;;;;;;;;;5073653;28;20189;-68
2023/05/05 07:45:45;;;;;;;12.50;10.77;;;;;;;;;;5073553;28;20206;-68
2023/05/05 07:48:11;;;;;;;12.83;10.90;;;;;;;;;;5055905;28;20600;-68
2023/05/05 07:50:37;;;;;;;12.87;11.43;;;;;;;;;;5073801;28;20177;-66
2023/05/05 07:53:03;;;;;;;12.93;10.40;;;;;;;;;;5055710;28;20780;-66
2023/05/05 07:55:29;;;;;;;12.70;10.30;;;;;;;;;;5056571;28;20202;-67
2023/05/05 07:57:55;;;;;;;12.57;10.10;;;;;;;;;;5073548;28;20223;-68
2023/05/05 08:00:21;;;;;;;12.17;10.60;;;;;;;;;;5055161;28;20196;-67
2023/05/05 08:02:47;;;;;;;13.47;9.77;;;;;;;;;;5073586;28;20189;-67
2023/05/05 08:05:13;;;;;;;14.53;10.13;;;;;;;;;;5055791;28;20189;-67
2023/05/05 08:07:40;;;;;;;15.10;10.90;;;;;;;;;;5073548;28;20205;-67
2023/05/05 08:10:07;;;;;;;12.60;10.20;;;;;;;;;;5073459;28;20180;-67
2023/05/05 08:12:32;;;;;;;12.17;10.97;;;;;;;;;;5072988;28;20177;-67
2023/05/05 08:14:58;;;;;;;11.63;10.53;;;;;;;;;;5055020;28;20258;-67
2023/05/05 08:17:25;;;;;;;11.83;10.60;;;;;;;;;;5054947;28;20231;-67
2023/05/05 08:19:52;;;;;;;9.93;8.50;;;;;;;;;;5076663;28;20177;-67
2023/05/05 08:22:18;;;;;;;9.97;7.07;;;;;;;;;;5076998;28;20702;-67
2023/05/05 08:24:44;;;;;;;10.50;9.50;;;;;;;;;;5077516;28;20178;-68
2023/05/05 08:27:10;;;;;;;12.03;9.00;;;;;;;;;;5058932;28;20201;-67
2023/05/05 08:29:36;;;;;;;12.90;7.83;;;;;;;;;;5077362;28;20231;-69
2023/05/05 08:32:01;;;;;;;9.00;8.10;;;;;;;;;;5076651;28;20276;-68
2023/05/05 08:34:27;;;;;;;11.17;7.83;;;;;;;;;;5076897;28;20626;-68
2023/05/05 08:36:53;;;;;;;9.50;7.43;;;;;;;;;;5077254;28;20221;-67
2023/05/05 08:39:19;;;;;;;8.23;7.20;;;;;;;;;;5058686;28;20223;-67
2023/05/05 08:41:45;;;;;;;8.87;6.37;;;;;;;;;;5076714;28;20224;-68
2023/05/05 08:44:11;;;;;;;6.23;5.60;;;;;;;;;;5076796;28;20212;-68
2023/05/05 08:46:38;;;;;;;7.33;5.67;;;;;;;;;;5058560;28;20186;-68
2023/05/05 08:49:05;;;;;;;8.43;5.23;;;;;;;;;;5076489;28;20173;-67
2023/05/05 08:51:37;;;;;;;8.23;5.50;;;;;;;;;;5058443;28;20181;-67
2023/05/05 08:54:05;;;;;;;7.87;6.40;;;;;;;;;;5058230;28;20594;-68
2023/05/05 08:56:37;;;;;;;9.57;6.70;;;;;;;;;;5058385;28;20174;-68
2023/05/05 08:59:03;;;;;;;9.50;7.17;;;;;;;;;;5058311;28;20174;-67
2023/05/05 09:01:32;;;;;;;9.70;7.47;;;;;;;;;;5076187;28;20646;-67
2023/05/05 09:03:58;;;;;;;9.33;7.57;;;;;;;;;;5076137;28;20198;-68
2023/05/05 09:06:26;;;;;;;8.33;7.40;;;;;;;;;;5058282;28;20216;-68
2023/05/05 09:08:52;;;;;;;7.33;6.60;;;;;;;;;;5058238;28;20186;-67
2023/05/05 09:11:18;;;;;;;7.87;6.47;;;;;;;;;;5058227;28;20185;-67
2023/05/05 09:13:45;;;;;;;9.43;6.03;;;;;;;;;;5058400;28;20578;-68
2023/05/05 09:16:11;;;;;;;6.77;6.07;;;;;;;;;;5058804;28;20170;-67
2023/05/05 09:18:39;;;;;;;8.90;6.03;;;;;;;;;;5076633;28;20197;-68
2023/05/05 09:21:18;;;;;;;7.33;5.60;;;;;;;;;;5057836;28;20180;-68
2023/05/05 09:24:04;;;;;;;6.70;5.60;;;;;;;;;;5057866;28;20197;-68
2023/05/05 09:26:30;;;;;;;;;;;;;;;;;;5058557;28;20033;-68
2023/05/05 09:28:56;;;;;;;9.50;5.73;;;;;;;;;;5075525;28;20278;-68
2023/05/05 09:31:22;;;;;;;6.63;5.90;;;;;;;;;;5074333;28;20761;-68
2023/05/05 09:33:48;;;;;;;10.15;6.30;;;;;;;;;;5056389;28;20379;-68
2023/05/05 09:36:14;;;;;;;6.97;5.87;;;;;;;;;;5075483;28;20660;-68
2023/05/05 09:38:40;;;;;;;13.70;5.97;;;;;;;;;;5057642;28;20173;-68
2023/05/05 09:41:06;;;;;;;7.30;6.10;;;;;;;;;;5057641;28;20269;-67
2023/05/05 09:43:48;;;;;;;8.43;5.73;;;;;;;;;;5057382;28;20225;-67
2023/05/05 09:46:15;;;;;;;5.90;5.30;;;;;;;;;;5057489;28;20265;-66
2023/05/05 09:48:41;;;;;;;6.07;5.43;;;;;;;;;;5075362;28;20648;-67
2023/05/05 09:51:07;;;;;;;7.67;4.53;;;;;;;;;;5075149;28;20177;-67
2023/05/05 09:53:38;;;;;;;6.27;4.83;;;;;;;;;;5075284;28;20292;-67
2023/05/05 09:56:04;;;;;;;7.13;4.47;;;;;;;;;;5075586;28;20237;-67
2023/05/05 09:58:30;;;;;;;6.10;5.03;;;;;;;;;;5057167;28;20690;-67
2023/05/05 10:00:57;;;;;;;6.30;5.27;;;;;;;;;;5075459;28;20171;-67
2023/05/05 10:03:23;;;;;;;5.10;4.53;;;;;;;;;;5075347;28;20551;-67
2023/05/05 10:05:53;;;;;;;9.73;5.63;;;;;;;;;;5075486;28;20178;-67
2023/05/05 10:08:21;;;;;;;8.23;4.67;;;;;;;;;;5057004;28;20663;-68
2023/05/05 10:10:55;;;;;;;9.90;5.70;;;;;;;;;;5056866;28;20204;-67
2023/05/05 10:13:22;;;;;;;6.67;5.50;;;;;;;;;;5074843;28;20584;-67
2023/05/05 10:15:50;;;;;;;7.33;5.10;;;;;;;;;;5074762;28;20289;-67
2023/05/05 10:18:18;;;;;;;5.90;5.30;;;;;;;;;;5056877;28;20181;-67
2023/05/05 10:20:45;;;;;;;9.93;5.23;;;;;;;;;;5074841;28;20200;-67
2023/05/05 10:23:12;;;;;;;6.13;5.07;;;;;;;;;;5056575;28;20193;-68
2023/05/05 10:25:41;;;;;;;5.20;4.40;;;;;;;;;;5057101;28;20193;-67
2023/05/05 10:28:09;;;;;;;7.33;3.20;;;;;;;;;;5056888;28;20588;-68
2023/05/05 10:30:40;;;;;;;6.10;2.57;;;;;;;;;;5075095;28;20182;-68
2023/05/05 10:33:15;;;;;;;5.07;3.30;;;;;;;;;;5074665;28;20204;-67
2023/05/05 10:35:43;;;;;;;5.60;3.40;;;;;;;;;;5056471;28;20246;-68
2023/05/05 10:38:10;;;;;;;5.90;3.90;;;;;;;;;;5074348;28;20174;-68
2023/05/05 10:40:36;;;;;;;4.57;3.60;;;;;;;;;;5073933;28;20174;-68
2023/05/05 10:43:03;;;;;;;6.80;4.00;;;;;;;;;;5074387;28;20190;-68
2023/05/05 10:45:30;;;;;;;9.27;4.30;;;;;;;;;;5074461;28;20188;-68
2023/05/05 10:47:59;;;;;;;6.57;4.00;;;;;;;;;;5074280;28;20185;-68
2023/05/05 10:50:25;;;;;;;6.30;3.97;;;;;;;;;;5074045;28;20260;-68
2023/05/05 10:53:09;;;;;;;7.87;4.13;;;;;;;;;;5056152;28;20707;-68
2023/05/05 10:55:38;;;;;;;3.80;3.40;;;;;;;;;;5074074;28;20223;-68
2023/05/05 10:58:04;;;;;;;4.87;3.77;;;;;;;;;;5099097;22;20233;-72
2023/05/05 11:00:39;;;;;;;4.57;4.17;;;;;;;;;;5074143;28;20526;-72
2023/05/05 11:03:18;;;;;;;7.20;4.50;;;;;;;;;;5073825;28;20173;-71
2023/05/05 11:06:03;;;;;;;4.93;4.27;;;;;;;;;;5074095;28;20246;-71
2023/05/05 11:08:33;;;;;;;8.03;4.60;;;;;;;;;;5035832;28;20269;-72
2023/05/05 11:10:59;;;;;;;5.50;4.47;;;;;;;;;;5053914;28;20175;-72
2023/05/05 11:13:25;;;;;;;4.73;4.07;;;;;;;;;;5035782;28;20178;-72
2023/05/05 11:15:52;;;;;;;4.60;4.20;;;;;;;;;;5053469;28;20679;-72
2023/05/05 11:18:28;;;;;;;5.20;4.63;;;;;;;;;;5053422;28;20195;-72
2023/05/05 11:20:57;;;;;;;6.47;4.33;;;;;;;;;;5053406;28;20253;-72
2023/05/05 11:23:23;;;;;;;4.90;4.40;;;;;;;;;;5053379;28;20248;-72
2023/05/05 11:25:50;;;;;;;5.67;4.20;;;;;;;;;;5053372;28;20181;-72
2023/05/05 11:28:17;;;;;;;4.23;3.43;;;;;;;;;;5053238;28;20199;-71
2023/05/05 11:30:55;;;;;;;4.07;3.67;;;;;;;;;;5035380;28;20217;-72
2023/05/05 11:33:35;;;;;;;7.33;4.53;;;;;;;;;;5053309;28;20205;-71
2023/05/05 11:36:05;;;;;;;5.00;4.00;;;;;;;;;;5053090;28;20174;-72
2023/05/05 11:38:49;;;;;;;5.83;4.27;;;;;;;;;;5053276;28;20557;-72
2023/05/05 11:41:26;;;;;;;5.63;4.80;;;;;;;;;;5053658;28;20545;-71
2023/05/05 11:44:07;;;;;;;7.80;4.43;;;;;;;;;;5053427;28;20512;-72
2023/05/05 11:46:33;;;;;;;5.17;4.53;;;;;;;;;;5053151;28;20198;-72
2023/05/05 11:48:59;;;;;;;6.67;5.43;;;;;;;;;;5053007;28;20220;-72
2023/05/05 11:51:25;;;;;;;8.10;5.70;;;;;;;;;;5035194;28;20182;-72
2023/05/05 11:53:51;;;;;;;5.97;5.10;;;;;;;;;;5052808;28;20178;-72
2023/05/05 11:56:19;;;;;;;7.13;4.90;;;;;;;;;;5034969;28;20182;-72
2023/05/05 11:58:45;;;;;;;6.00;4.70;;;;;;;;;;5053561;28;20221;-72
2023/05/05 12:01:12;;;;;;;7.10;4.77;;;;;;;;;;5035487;28;20222;-72
2023/05/05 12:03:38;;;;;;;9.13;4.93;;;;;;;;;;5035036;28;20189;-72
2023/05/05 12:06:05;;;;;;;6.27;4.33;;;;;;;;;;5034909;28;20182;-72
2023/05/05 12:08:40;;;;;;;14.10;6.30;;;;;;;;;;5052868;28;20262;-72
2023/05/05 12:11:07;;;;;;;5.93;4.37;;;;;;;;;;5052873;28;20636;-72
2023/05/05 12:13:33;;;;;;;7.33;4.87;;;;;;;;;;5052694;28;20178;-72
2023/05/05 12:16:08;;;;;;;6.27;4.10;;;;;;;;;;5053042;28;20217;-72
2023/05/05 12:18:34;;;;;;;5.83;4.53;;;;;;;;;;5034950;28;20178;-72
2023/05/05 12:21:00;;;;;;;5.13;3.93;;;;;;;;;;5053744;28;20681;-72
2023/05/05 12:23:28;;;;;;;8.47;4.20;;;;;;;;;;5035126;28;20210;-72
2023/05/05 12:25:55;;;;;;;7.70;5.00;;;;;;;;;;5035212;28;20712;-71
2023/05/05 12:28:21;;;;;;;7.00;4.33;;;;;;;;;;5052928;28;20202;-71
2023/05/05 12:30:59;;;;;;;5.30;3.50;;;;;;;;;;5052694;28;20266;-71
2023/05/05 12:33:25;;;;;;;7.20;3.67;;;;;;;;;;5052865;28;20183;-72
2023/05/05 12:35:51;;;;;;;6.30;3.20;;;;;;;;;;5052677;28;20355;-72
2023/05/05 12:38:17;;;;;;;6.87;2.80;;;;;;;;;;5052816;28;20673;-72
2023/05/05 12:40:45;;;;;;;4.83;2.23;;;;;;;;;;5053169;28;20261;-72
2023/05/05 12:43:23;;;;;;;3.67;2.00;;;;;;;;;;5034771;28;20179;-71
2023/05/05 12:45:58;;;;;;;4.57;2.00;;;;;;;;;;5052560;28;20198;-72
2023/05/05 12:48:24;;;;;;;5.63;1.83;;;;;;;;;;5034655;28;20198;-71
2023/05/05 12:50:50;;;;;;;4.33;1.90;;;;;;;;;;5053122;28;20549;-72
2023/05/05 12:53:20;;;;;;;6.63;2.10;;;;;;;;;;5034884;28;20186;-72
2023/05/05 12:55:46;;;;;;;4.27;2.37;;;;;;;;;;5052988;28;20203;-72
2023/05/05 12:58:12;;;;;;;4.73;2.10;;;;;;;;;;5052853;28;20716;-73
2023/05/05 13:00:38;;;;;;;5.23;2.57;;;;;;;;;;5053094;28;20229;-76
2023/05/05 13:03:05;;;;;;;5.63;2.50;;;;;;;;;;5053199;28;20182;-75
2023/05/05 13:05:31;;;;;;;4.47;2.40;;;;;;;;;;5055689;28;20656;-73
2023/05/05 13:07:57;;;;;;;5.20;2.20;;;;;;;;;;5056355;28;20198;-72
2023/05/05 13:10:23;;;;;;;3.67;2.30;;;;;;;;;;5038151;28;20236;-72
2023/05/05 13:12:50;;;;;;;5.57;2.80;;;;;;;;;;5038245;28;20189;-73
2023/05/05 13:15:16;;;;;;;7.37;2.70;;;;;;;;;;5055849;28;20238;-73
2023/05/05 13:17:42;;;;;;;6.77;4.90;;;;;;;;;;5056404;28;20281;-73
2023/05/05 13:20:09;;;;;;;4.23;2.67;;;;;;;;;;5056034;28;20217;-74
2023/05/05 13:22:35;;;;;;;4.17;3.20;;;;;;;;;;5055769;28;20214;-73
2023/05/05 13:25:01;;;;;;;7.90;2.87;;;;;;;;;;5038600;28;20642;-73
2023/05/05 13:27:27;;;;;;;10.00;3.73;;;;;;;;;;5037668;28;20198;-73
2023/05/05 13:29:53;;;;;;;7.17;3.37;;;;;;;;;;5037988;28;20560;-74
2023/05/05 13:32:19;;;;;;;6.13;2.40;;;;;;;;;;5055591;28;20265;-73
2023/05/05 13:34:45;;;;;;;5.50;2.70;;;;;;;;;;5037608;28;20298;-73
2023/05/05 13:37:11;;;;;;;7.17;2.60;;;;;;;;;;5055378;28;20194;-73
2023/05/05 13:39:37;;;;;;;3.00;2.50;;;;;;;;;;5055675;28;20174;-73
2023/05/05 13:42:03;;;;;;;3.37;2.20;;;;;;;;;;5037626;28;20179;-72
2023/05/05 13:44:30;;;;;;;4.63;2.40;;;;;;;;;;5055466;28;20533;-73
2023/05/05 13:46:56;;;;;;;3.33;2.43;;;;;;;;;;5037412;28;20309;-73
2023/05/05 13:49:22;;;;;;;5.33;2.90;;;;;;;;;;5055224;28;20178;-72
2023/05/05 13:51:48;;;;;;;4.30;3.40;;;;;;;;;;5037273;28;20182;-73
2023/05/05 13:54:14;;;;;;;3.90;3.30;;;;;;;;;;5055076;28;20205;-72
2023/05/05 13:56:40;;;;;;;3.73;3.13;;;;;;;;;;5036981;28;20237;-71
2023/05/05 13:59:06;;;;;;;4.10;3.07;;;;;;;;;;5037260;28;20170;-71
2023/05/05 14:01:32;;;;;;;3.80;2.70;;;;;;;;;;5054978;28;20548;-72
2023/05/05 14:03:58;;;;;;;4.73;2.57;;;;;;;;;;5054913;28;20185;-72
2023/05/05 14:06:25;;;;;;;3.30;2.47;;;;;;;;;;5036985;28;20680;-72
2023/05/05 14:08:51;;;;;;;2.90;2.23;;;;;;;;;;5037565;28;20202;-71
2023/05/05 14:11:17;;;;;;;3.23;2.37;;;;;;;;;;5055425;28;20535;-71
2023/05/05 14:13:45;;;;;;;3.80;3.40;;;;;;;;;;5054724;28;20256;-71
2023/05/05 14:16:11;;;;;;;5.77;3.90;;;;;;;;;;5054205;28;20541;-72
2023/05/05 14:18:37;;;;;;;3.87;3.50;;;;;;;;;;5054885;28;20171;-71
2023/05/05 14:21:03;;;;;;;7.07;3.60;;;;;;;;;;5055507;28;20584;-71
2023/05/05 14:23:29;;;;;;;4.40;4.00;;;;;;;;;;5037383;28;20179;-71
2023/05/05 14:25:55;;;;;;;6.10;4.07;;;;;;;;;;5055619;28;20186;-71
2023/05/05 14:28:21;;;;;;;5.13;3.80;;;;;;;;;;5054946;28;20248;-71
2023/05/05 14:30:47;;;;;;;12.27;3.57;;;;;;;;;;5037026;28;20187;-71
2023/05/05 14:33:13;;;;;;;6.97;2.80;;;;;;;;;;5036885;28;20186;-70
2023/05/05 14:35:39;;;;;;;1.90;1.80;;;;;;;;;;5037006;28;20753;-70